Brunswick, ME

12:32 PM EDT on September 21, 2014 (GMT -0400)
Wiscasset | Change Station
CLOSE
Current Station
Airport
Location: Wiscasset,
Elevation: 69 ft
Nearby Weather Stations

Elev 69 ft 43.96 °N, 69.71 °W | Updated 24 minutes ago

Overcast
Overcast
67 °F
Feels Like 67 °F
N
8
Wind Variable Wind from SW

Today
High -- | Low -- °F
--% Chance of Precip.
Yesterday
High -- | Low -- °F
Precip. -- in
6:25 AM 6:39 PM
Waning Crescent, 6% visible
Pressure 29.91 in
Visibility 8.0 miles
Clouds Overcast 500 ft
Dew Point 64 °F
Humidity 90%
Rainfall 0.11 in
Snow Depth Not available.
UV 2 out of 12
Pollen 1.00 out of 12
Ozone Good
PM2.5 Good
Flu Activity Not available.
SPECI KIWI 211608Z AUTO 22007KT 8SM OVC005 19/18 A2991 RMK AO2 RAE02 P0000 T01940178

More Conditions Fewer Conditions

Pressure 29.91 in
Visibility 8.0 miles
Clouds Overcast 500 ft
Dew Point 64 °F
Humidity 90%
Rainfall 0.11 in
Snow Depth Not available.
UV 2 out of 12
Pollen 1.00 out of 12
Ozone Good
PM2.5 Good
Flu Activity Not available.
SPECI KIWI 211608Z AUTO 22007KT 8SM OVC005 19/18 A2991 RMK AO2 RAE02 P0000 T01940178

More Conditions Fewer Conditions

10-Day Weather Forecast

Almanac

Astronomy

Sep. 21, 2014 Rise Set
Actual Time 6:25 AM EDT 6:39 PM EDT
Civil Twilight 5:57 AM EDT 7:07 PM EDT
Nautical Twilight 5:23 AM EDT 7:41 PM EDT
Astronomical Twilight 4:48 AM EDT 8:16 PM EDT
Moon 3:52 AM EDT 5:16 PM EDT
Length of Visible Light 13h 10m
Length of Day
12h 13m
Tomorrow will be 3m 0s shorter.
Waning Crescent, 6% of the Moon is Illuminated
Today
Waning Crescent
Sep 24
New
Oct 1
First Quarter
Oct 8
Full
Oct 15
Last Quarter

Today's Extremes

State Highs State Lows

Community

WunderPhotos

Upload Photos

1,755,186 photos uploaded!

Nearby

Air Quality

  Air Quality AQ Index Pollutant
Yesterday Good
OZONE
Yesterday Good
PM2.5
Current Good
OZONE
Current Good
PM2.5
Sunday Good
OZONE
Sunday Good
PM2.5
Monday Good
OZONE
Monday Good
PM2.5
Tuesday Good
OZONE
Tuesday Good
PM2.5
Wednesday Good
OZONE
Wednesday Good
PM2.5

Snow Depth

Station Depth Elevation
No new snow has been reported.

Earthquake Activity

City Distance Mag. Time & Date
No recent earthquake activity has been reported nearby.
Minimum magnitude displayed is 2.5.

Coastal Water Temperatures

Place Temperature
Portland, ME 57.9 °F
Wells, ME 57.0 °F

Nearby Weather Stations